createdAt,value
2022-10-05T00:00:57.258Z,21.33
2022-10-05T00:03:25.162Z,17.98
2022-10-05T00:05:51.508Z,24.00
2022-10-05T00:08:19.103Z,19.83
2022-10-05T00:10:45.791Z,14.43
2022-10-05T00:13:30.941Z,19.95
2022-10-05T00:16:15.989Z,17.15
2022-10-05T00:18:43.442Z,22.52
2022-10-05T00:21:17.242Z,21.33
2022-10-05T00:23:43.623Z,23.98
2022-10-05T00:26:16.701Z,19.25
2022-10-05T00:28:43.038Z,21.20
2022-10-05T00:31:17.840Z,20.70
2022-10-05T00:33:44.237Z,22.75
2022-10-05T00:36:10.761Z,16.27
2022-10-05T00:38:37.290Z,19.45
2022-10-05T00:41:06.652Z,16.38
2022-10-05T00:43:48.231Z,16.80
2022-10-05T00:46:21.476Z,21.42
2022-10-05T00:48:53.951Z,24.83
2022-10-05T00:51:23.373Z,27.67
2022-10-05T00:53:58.918Z,18.98
2022-10-05T00:56:32.331Z,24.25
2022-10-05T00:59:17.642Z,21.63
2022-10-05T01:01:43.958Z,21.92
2022-10-05T01:04:18.218Z,21.33
2022-10-05T01:06:51.019Z,18.98
2022-10-05T01:09:36.002Z,17.08
2022-10-05T01:12:25.203Z,22.50
2022-10-05T01:15:10.337Z,17.92
2022-10-05T01:17:36.672Z,21.10
2022-10-05T01:20:21.866Z,18.08
2022-10-05T01:22:51.261Z,26.70
2022-10-05T01:25:20.586Z,23.90
2022-10-05T01:27:54.818Z,18.55
2022-10-05T01:30:22.033Z,20.98
2022-10-05T01:33:03.693Z,22.85
2022-10-05T01:35:48.818Z,20.30
2022-10-05T01:38:29.606Z,19.48
2022-10-05T01:41:12.532Z,15.45
2022-10-05T01:43:46.796Z,15.18
2022-10-05T01:46:22.393Z,22.40
2022-10-05T01:48:54.989Z,16.33
2022-10-05T01:51:21.297Z,14.88
2022-10-05T01:54:03.427Z,22.45
2022-10-05T01:56:43.376Z,18.33
2022-10-05T01:59:25.492Z,18.27
2022-10-05T02:02:00.270Z,13.63
2022-10-05T02:05:02.580Z,19.85
2022-10-05T02:07:49.611Z,16.45
2022-10-05T02:10:19.120Z,15.40
2022-10-05T02:12:46.899Z,22.13
2022-10-05T02:15:22.641Z,16.70
2022-10-05T02:17:50.344Z,16.13
2022-10-05T02:20:20.436Z,19.13
2022-10-05T02:22:48.160Z,14.47
2022-10-05T02:25:16.417Z,21.42
2022-10-05T02:27:54.874Z,12.20
2022-10-05T02:30:21.743Z,19.20
2022-10-05T02:32:53.131Z,24.50
2022-10-05T02:35:21.378Z,16.40
2022-10-05T02:37:47.690Z,19.27
2022-10-05T02:40:32.878Z,24.65
2022-10-05T02:43:18.141Z,19.40
2022-10-05T02:46:17.049Z,19.02
2022-10-05T02:49:06.450Z,16.88
2022-10-05T02:51:32.757Z,16.80
2022-10-05T02:54:17.914Z,16.35
2022-10-05T02:56:59.528Z,16.50
2022-10-05T02:59:29.013Z,12.13
2022-10-05T03:01:55.369Z,13.30
2022-10-05T03:04:40.607Z,16.17
2022-10-05T03:07:06.974Z,16.10
2022-10-05T03:09:39.473Z,18.30
2022-10-05T03:12:15.913Z,12.80
2022-10-05T03:14:48.327Z,11.55
2022-10-05T03:17:19.161Z,12.23
2022-10-05T03:20:00.840Z,12.80
2022-10-05T03:22:33.265Z,10.95
2022-10-05T03:25:11.853Z,13.45
2022-10-05T03:27:44.306Z,13.85
2022-10-05T03:30:16.432Z,11.13
2022-10-05T03:33:01.393Z,14.45
2022-10-05T03:35:30.031Z,11.95
2022-10-05T03:37:56.342Z,10.15
2022-10-05T03:40:29.521Z,14.98
2022-10-05T03:43:05.159Z,15.10
2022-10-05T03:45:37.905Z,11.50
2022-10-05T03:48:09.917Z,13.13
2022-10-05T03:50:45.109Z,10.77
2022-10-05T03:53:14.509Z,12.48
2022-10-05T03:55:43.941Z,8.98
2022-10-05T03:58:45.816Z,8.68
2022-10-05T04:01:21.220Z,12.75
2022-10-05T04:03:50.039Z,11.02
2022-10-05T04:06:18.834Z,10.95
2022-10-05T04:08:47.883Z,9.90
2022-10-05T04:11:18.309Z,10.13
2022-10-05T04:13:51.964Z,12.33
2022-10-05T04:16:23.101Z,12.98
2022-10-05T04:19:08.219Z,11.93
2022-10-05T04:21:37.929Z,17.63
2022-10-05T04:24:17.905Z,15.50
2022-10-05T04:27:00.362Z,10.23
2022-10-05T04:29:45.186Z,7.68
2022-10-05T04:32:20.675Z,11.77
2022-10-05T04:34:58.405Z,13.35
2022-10-05T04:37:46.368Z,15.55
2022-10-05T04:40:17.792Z,14.88
2022-10-05T04:42:58.125Z,11.85
2022-10-05T04:45:34.153Z,9.27
2022-10-05T04:48:11.212Z,10.50
2022-10-05T04:50:46.874Z,12.20
2022-10-05T04:53:25.599Z,21.27
2022-10-05T04:56:02.451Z,16.08
2022-10-05T04:58:30.166Z,17.65
2022-10-05T05:01:14.981Z,12.63
2022-10-05T05:04:16.915Z,14.90
2022-10-05T05:07:01.767Z,19.45
2022-10-05T05:09:46.569Z,17.17
2022-10-05T05:12:19.575Z,22.27
2022-10-05T05:14:59.262Z,17.08
2022-10-05T05:17:41.035Z,14.85
2022-10-05T05:20:07.378Z,12.23
2022-10-05T05:22:40.261Z,11.73
2022-10-05T05:25:20.296Z,13.40
2022-10-05T05:28:01.077Z,14.00
2022-10-05T05:30:38.968Z,12.93
2022-10-05T05:33:14.496Z,13.18
2022-10-05T05:35:50.053Z,16.45
2022-10-05T05:38:38.710Z,15.48
2022-10-05T05:41:08.541Z,14.13
2022-10-05T05:43:50.007Z,20.80
2022-10-05T05:46:16.545Z,15.50
2022-10-05T05:48:47.200Z,13.20
2022-10-05T05:51:27.597Z,10.52
2022-10-05T05:53:57.234Z,10.20
2022-10-05T05:56:32.786Z,11.25
2022-10-05T05:58:59.173Z,10.30
2022-10-05T06:01:33.355Z,11.35
2022-10-05T06:04:09.450Z,14.90
2022-10-05T06:06:38.094Z,14.57
2022-10-05T06:09:06.837Z,16.63
2022-10-05T06:11:38.059Z,20.15
2022-10-05T06:14:23.463Z,20.00
2022-10-05T06:16:59.013Z,22.95
2022-10-05T06:19:26.620Z,16.92
2022-10-05T06:22:02.611Z,22.83
2022-10-05T06:24:36.654Z,18.52
2022-10-05T06:27:09.236Z,18.45
2022-10-05T06:29:53.429Z,17.38
2022-10-05T06:32:19.743Z,23.02
2022-10-05T06:35:15.665Z,16.73
2022-10-05T06:37:42.097Z,18.73
2022-10-05T06:40:08.528Z,17.58
2022-10-05T06:43:04.500Z,17.13
2022-10-05T06:45:39.753Z,20.30
2022-10-05T06:48:26.428Z,20.27
2022-10-05T06:50:56.603Z,14.65
2022-10-05T06:53:35.396Z,15.93
2022-10-05T06:56:08.808Z,12.85
2022-10-05T06:58:38.196Z,13.05
2022-10-05T07:01:04.693Z,17.77
2022-10-05T07:03:38.946Z,13.43
2022-10-05T07:06:15.974Z,14.90
2022-10-05T07:09:01.148Z,13.55
2022-10-05T07:11:27.470Z,20.27
2022-10-05T07:14:12.610Z,13.07
2022-10-05T07:16:42.064Z,17.35
2022-10-05T07:19:17.648Z,10.77
2022-10-05T07:22:02.990Z,8.95
2022-10-05T07:24:31.866Z,11.30
2022-10-05T07:27:16.765Z,8.68
2022-10-05T07:30:01.330Z,10.25
2022-10-05T07:32:27.702Z,11.85
2022-10-05T07:35:01.255Z,15.07
2022-10-05T07:37:49.269Z,7.07
2022-10-05T07:40:19.546Z,11.60
2022-10-05T07:42:59.955Z,7.28
2022-10-05T07:45:26.442Z,6.72
2022-10-05T07:47:57.752Z,8.60
2022-10-05T07:50:27.308Z,6.85
2022-10-05T07:52:58.049Z,11.18
2022-10-05T07:55:26.100Z,11.27
2022-10-05T07:58:01.803Z,10.20
2022-10-05T08:00:47.270Z,10.40
2022-10-05T08:03:38.405Z,10.35
2022-10-05T08:08:50.031Z,10.93
2022-10-05T08:11:24.580Z,14.43
2022-10-05T08:14:16.688Z,14.25
2022-10-05T08:16:43.373Z,9.25
2022-10-05T08:19:46.852Z,9.00
2022-10-05T08:22:19.421Z,11.38
2022-10-05T08:24:52.235Z,11.68
2022-10-05T08:27:32.395Z,12.23
2022-10-05T08:30:01.420Z,10.00
2022-10-05T08:32:30.519Z,12.93
2022-10-05T08:35:15.517Z,7.65
2022-10-05T08:37:43.819Z,8.38
2022-10-05T08:40:21.474Z,10.35
2022-10-05T08:42:47.878Z,9.63
2022-10-05T08:45:34.491Z,14.27
2022-10-05T08:48:19.515Z,8.68
2022-10-05T08:51:02.454Z,9.68
2022-10-05T08:53:47.526Z,10.68
2022-10-05T08:56:19.068Z,10.27
2022-10-05T08:58:57.418Z,12.98
2022-10-05T09:01:27.242Z,12.30
2022-10-05T09:03:53.715Z,11.93
2022-10-05T09:06:22.407Z,15.75
2022-10-05T09:08:51.557Z,9.13
2022-10-05T09:11:17.870Z,12.75
2022-10-05T09:14:00.210Z,11.80
2022-10-05T09:16:44.235Z,14.88
2022-10-05T09:19:22.904Z,17.20
2022-10-05T09:21:52.279Z,11.57
2022-10-05T09:24:36.677Z,11.80
2022-10-05T09:27:15.166Z,13.05
2022-10-05T09:29:53.720Z,16.02
2022-10-05T09:32:35.326Z,12.30
2022-10-05T09:35:03.497Z,15.10
2022-10-05T09:37:38.780Z,14.63
2022-10-05T09:40:23.977Z,14.85
2022-10-05T09:43:10.977Z,8.27
2022-10-05T09:45:49.003Z,8.77
2022-10-05T09:48:31.008Z,7.63
2022-10-05T09:51:06.622Z,6.68
2022-10-05T09:53:41.813Z,8.82
2022-10-05T09:56:09.181Z,7.80
2022-10-05T09:58:54.199Z,5.75
2022-10-05T10:01:33.528Z,5.72
2022-10-05T10:04:25.854Z,5.60
2022-10-05T10:06:55.738Z,4.50
2022-10-05T10:09:40.006Z,5.38
2022-10-05T10:12:12.388Z,3.47
2022-10-05T10:14:39.228Z,2.50
2022-10-05T10:17:10.387Z,3.28
2022-10-05T10:19:53.056Z,2.35
2022-10-05T10:22:43.325Z,1.88
2022-10-05T10:25:28.530Z,3.90
2022-10-05T10:28:06.865Z,2.22
2022-10-05T10:30:51.839Z,2.53
2022-10-05T10:33:18.467Z,2.00
2022-10-05T10:35:51.112Z,2.10
2022-10-05T10:38:20.270Z,3.28
2022-10-05T10:41:04.602Z,3.60
2022-10-05T10:43:41.043Z,2.33
2022-10-05T10:46:17.995Z,5.90
2022-10-05T10:49:00.174Z,5.95
2022-10-05T10:51:45.143Z,3.72
2022-10-05T10:54:19.382Z,8.27
2022-10-05T10:57:04.716Z,7.30
2022-10-05T10:59:44.803Z,8.50
2022-10-05T11:02:23.792Z,11.70
2022-10-05T11:05:23.202Z,9.02
2022-10-05T11:07:49.514Z,14.73
2022-10-05T11:10:31.319Z,9.27
2022-10-05T11:13:00.540Z,12.10
2022-10-05T11:15:29.905Z,8.88
2022-10-05T11:18:15.646Z,15.65
2022-10-05T11:20:56.136Z,10.60
2022-10-05T11:23:48.305Z,9.20
2022-10-05T11:26:37.909Z,19.25
2022-10-05T11:29:23.107Z,14.75
2022-10-05T11:32:01.644Z,11.45
2022-10-05T11:34:46.706Z,18.27
2022-10-05T11:37:36.192Z,16.05
2022-10-05T11:40:22.490Z,20.42
2022-10-05T11:43:09.229Z,15.88
2022-10-05T11:45:51.844Z,12.95
2022-10-05T11:48:36.684Z,13.05
2022-10-05T11:51:11.623Z,16.30
2022-10-05T11:53:43.693Z,19.00
2022-10-05T11:56:34.469Z,18.65
2022-10-05T11:59:05.117Z,14.30
2022-10-05T12:01:34.725Z,14.93
2022-10-05T12:04:19.916Z,17.23
2022-10-05T12:06:46.448Z,17.45
2022-10-05T12:09:22.239Z,17.98
2022-10-05T12:11:57.846Z,14.20
2022-10-05T12:14:32.235Z,15.55
2022-10-05T12:17:17.420Z,12.00
2022-10-05T12:19:45.676Z,13.88
2022-10-05T12:22:15.542Z,13.57
2022-10-05T12:24:44.893Z,15.57
2022-10-05T12:27:13.886Z,12.98
2022-10-05T12:29:49.243Z,15.35
2022-10-05T12:32:30.411Z,18.15
2022-10-05T12:35:03.282Z,13.68
2022-10-05T12:37:48.300Z,11.82
2022-10-05T12:40:14.657Z,12.30
2022-10-05T12:42:45.576Z,15.52
2022-10-05T12:47:57.128Z,14.25
2022-10-05T12:50:23.497Z,13.00
2022-10-05T12:52:52.853Z,19.63
2022-10-05T12:55:42.737Z,16.70
2022-10-05T12:58:15.287Z,12.90
2022-10-05T13:00:49.004Z,21.30
2022-10-05T13:03:23.434Z,17.27
2022-10-05T13:06:02.492Z,18.27
2022-10-05T13:08:48.103Z,20.92
2022-10-05T13:11:25.093Z,16.50
2022-10-05T13:13:51.435Z,12.60
2022-10-05T13:16:17.938Z,15.52
2022-10-05T13:19:02.678Z,14.48
2022-10-05T13:21:48.696Z,19.27
2022-10-05T13:24:23.281Z,19.75
2022-10-05T13:26:53.583Z,17.02
2022-10-05T13:29:25.647Z,13.55
2022-10-05T13:32:04.929Z,17.10
2022-10-05T13:34:42.042Z,19.90
2022-10-05T13:37:12.751Z,12.95
2022-10-05T13:39:59.474Z,11.85
2022-10-05T13:42:39.997Z,16.25
2022-10-05T13:45:14.034Z,14.32
2022-10-05T13:47:48.616Z,17.83
2022-10-05T13:50:23.466Z,16.20
2022-10-05T13:52:59.825Z,15.52
2022-10-05T13:55:35.465Z,14.63
2022-10-05T13:58:05.651Z,17.10
2022-10-05T14:00:34.218Z,14.50
2022-10-05T14:03:03.624Z,13.00
2022-10-05T14:05:30.921Z,15.85
2022-10-05T14:08:10.066Z,20.60
2022-10-05T14:10:39.613Z,18.17
2022-10-05T14:13:20.961Z,17.83
2022-10-05T14:16:07.949Z,16.30
2022-10-05T14:18:36.979Z,19.92
2022-10-05T14:21:12.708Z,17.27
2022-10-05T14:23:39.393Z,18.60
2022-10-05T14:26:20.184Z,17.38
2022-10-05T14:29:15.286Z,12.45
2022-10-05T14:31:50.922Z,20.20
2022-10-05T14:34:26.858Z,19.35
2022-10-05T14:37:18.081Z,16.17
2022-10-05T14:42:15.530Z,15.77
2022-10-05T14:47:24.629Z,15.88
2022-10-05T14:50:16.638Z,14.60
2022-10-05T14:53:10.169Z,15.10
2022-10-05T14:55:39.608Z,12.05
2022-10-05T14:58:13.497Z,14.05
2022-10-05T15:00:52.819Z,11.57
2022-10-05T15:03:20.747Z,12.45
2022-10-05T15:05:50.360Z,11.80
2022-10-05T15:08:20.316Z,11.88
2022-10-05T15:10:49.964Z,10.50
2022-10-05T15:13:18.716Z,10.70
2022-10-05T15:15:47.807Z,14.52
2022-10-05T15:18:34.961Z,16.27
2022-10-05T15:21:13.500Z,9.80
2022-10-05T15:23:40.089Z,8.52
2022-10-05T15:26:07.601Z,7.10
2022-10-05T15:28:48.392Z,12.20
2022-10-05T15:31:23.949Z,8.93
2022-10-05T15:34:01.680Z,7.35
2022-10-05T15:36:43.012Z,11.27
2022-10-05T15:39:15.412Z,12.98
2022-10-05T15:41:51.588Z,6.68
2022-10-05T15:44:36.619Z,8.88
2022-10-05T15:47:05.910Z,12.95
2022-10-05T15:49:50.814Z,11.57
2022-10-05T15:52:29.412Z,13.80
2022-10-05T15:54:58.948Z,16.30
2022-10-05T15:57:30.478Z,12.65
2022-10-05T15:59:56.798Z,11.27
2022-10-05T16:02:26.001Z,15.55
2022-10-05T16:05:12.710Z,14.90
2022-10-05T16:08:04.040Z,12.98
2022-10-05T16:10:33.158Z,15.18
2022-10-05T16:13:04.938Z,19.77
2022-10-05T16:15:34.511Z,14.35
2022-10-05T16:18:03.853Z,21.70
2022-10-05T16:20:50.070Z,15.45
2022-10-05T16:23:21.811Z,14.38
2022-10-05T16:25:54.305Z,19.58
2022-10-05T16:28:24.037Z,15.55
2022-10-05T16:30:58.721Z,18.15
2022-10-05T16:33:34.661Z,16.05
2022-10-05T16:36:03.751Z,14.88
2022-10-05T16:38:40.285Z,15.93
2022-10-05T16:41:07.978Z,12.50
2022-10-05T16:43:49.300Z,12.35
2022-10-05T16:46:21.892Z,15.57
2022-10-05T16:49:08.853Z,12.52
2022-10-05T16:51:43.370Z,13.32
2022-10-05T16:54:18.810Z,10.60
2022-10-05T16:56:48.803Z,15.93
2022-10-05T16:59:18.204Z,13.40
2022-10-05T17:01:51.973Z,12.20
2022-10-05T17:04:28.638Z,15.02
2022-10-05T17:06:58.044Z,14.48
2022-10-05T17:09:43.248Z,11.70
2022-10-05T17:12:29.424Z,13.40
2022-10-05T17:15:01.865Z,16.60
2022-10-05T17:17:49.045Z,13.00
2022-10-05T17:20:26.810Z,12.27
2022-10-05T17:22:57.887Z,17.60
2022-10-05T17:25:34.130Z,12.77
2022-10-05T17:28:18.934Z,12.65
2022-10-05T17:30:53.860Z,14.20
2022-10-05T17:33:29.000Z,23.10
2022-10-05T17:35:56.779Z,18.92
2022-10-05T17:38:43.424Z,22.45
2022-10-05T17:41:09.754Z,15.32
2022-10-05T17:43:39.457Z,18.52
2022-10-05T17:46:06.971Z,16.75
2022-10-05T17:48:49.594Z,14.50
2022-10-05T17:51:36.136Z,18.20
2022-10-05T17:54:53.334Z,16.75
2022-10-05T17:57:19.991Z,16.80
2022-10-05T17:59:56.942Z,16.73
2022-10-05T18:02:36.210Z,17.50
2022-10-05T18:05:12.669Z,19.90
2022-10-05T18:07:40.398Z,22.73
2022-10-05T18:10:09.828Z,21.40
2022-10-05T18:12:36.165Z,20.00
2022-10-05T18:15:12.951Z,22.67
2022-10-05T18:17:43.831Z,21.65
2022-10-05T18:20:31.715Z,18.77
2022-10-05T18:23:07.301Z,22.63
2022-10-05T18:25:38.171Z,21.98
2022-10-05T18:28:23.217Z,25.85
2022-10-05T18:31:03.968Z,21.02
2022-10-05T18:33:40.620Z,24.88
2022-10-05T18:36:16.215Z,15.18
2022-10-05T18:38:49.158Z,17.23
2022-10-05T18:41:21.589Z,21.38
2022-10-05T18:43:48.002Z,21.83
2022-10-05T18:46:14.400Z,20.33
2022-10-05T18:48:40.752Z,24.13
2022-10-05T18:51:07.086Z,21.42
2022-10-05T18:53:44.789Z,21.23
2022-10-05T18:56:14.187Z,20.30
2022-10-05T18:58:53.201Z,25.25
2022-10-05T19:01:41.311Z,22.90
2022-10-05T19:04:14.685Z,25.60
2022-10-05T19:07:04.902Z,24.85
2022-10-05T19:09:49.584Z,16.40
2022-10-05T19:12:39.282Z,18.38
2022-10-05T19:15:26.039Z,21.65
2022-10-05T19:18:15.841Z,16.65
2022-10-05T19:21:05.202Z,16.05
2022-10-05T19:23:44.629Z,17.35
2022-10-05T19:26:23.605Z,22.00
2022-10-05T19:28:59.434Z,27.23
2022-10-05T19:31:45.483Z,26.73
2022-10-05T19:34:37.824Z,19.60
2022-10-05T19:37:33.334Z,24.08
2022-10-05T19:40:09.750Z,20.88
2022-10-05T19:42:46.091Z,18.15
2022-10-05T19:45:15.447Z,18.00
2022-10-05T19:47:47.898Z,24.75
2022-10-05T19:50:23.449Z,21.33
2022-10-05T19:52:51.198Z,30.38
2022-10-05T19:55:20.571Z,24.55
2022-10-05T19:57:51.082Z,20.70
2022-10-05T20:00:34.531Z,20.13
2022-10-05T20:03:17.759Z,24.73
2022-10-05T20:05:44.211Z,25.55
2022-10-05T20:08:14.768Z,30.10
2022-10-05T20:10:41.126Z,30.33
2022-10-05T20:13:19.021Z,20.67
2022-10-05T20:16:28.347Z,15.73
2022-10-05T20:19:13.232Z,22.55
2022-10-05T20:21:47.233Z,19.20
2022-10-05T20:24:13.597Z,18.00
2022-10-05T20:27:06.214Z,27.27
2022-10-05T20:29:34.048Z,27.55
2022-10-05T20:32:01.129Z,22.90
2022-10-05T20:34:27.520Z,28.23
2022-10-05T20:36:53.940Z,25.10
2022-10-05T20:39:21.337Z,28.50
2022-10-05T20:41:47.892Z,22.63
2022-10-05T20:44:14.505Z,24.65
2022-10-05T20:46:43.903Z,27.35
2022-10-05T20:49:11.548Z,28.45
2022-10-05T20:51:40.063Z,20.30
2022-10-05T20:54:07.303Z,21.20
2022-10-05T20:56:33.790Z,16.33
2022-10-05T20:59:00.165Z,17.67
2022-10-05T21:01:28.824Z,17.83
2022-10-05T21:03:55.614Z,18.15
2022-10-05T21:06:22.200Z,18.98
2022-10-05T21:08:51.348Z,20.20
2022-10-05T21:11:17.818Z,14.60
2022-10-05T21:13:47.301Z,17.13
2022-10-05T21:16:15.518Z,15.25
2022-10-05T21:18:42.700Z,18.45
2022-10-05T21:21:09.124Z,16.75
2022-10-05T21:23:35.559Z,14.93
2022-10-05T21:26:02.140Z,17.77
2022-10-05T21:28:29.368Z,25.10
2022-10-05T21:30:56.577Z,20.75
2022-10-05T21:33:22.972Z,21.35
2022-10-05T21:35:49.405Z,27.38
2022-10-05T21:38:15.796Z,17.38
2022-10-05T21:40:43.411Z,25.27
2022-10-05T21:43:09.922Z,23.40
2022-10-05T21:45:36.469Z,22.95
2022-10-05T21:48:03.065Z,18.17
2022-10-05T21:50:29.465Z,20.67
2022-10-05T21:52:55.822Z,27.52
2022-10-05T21:55:22.301Z,25.67
2022-10-05T21:57:48.650Z,20.73
2022-10-05T22:00:16.397Z,24.55
2022-10-05T22:02:42.783Z,23.40
2022-10-05T22:05:09.429Z,20.00
2022-10-05T22:07:35.788Z,19.25
2022-10-05T22:10:02.732Z,21.08
2022-10-05T22:12:29.074Z,22.77
2022-10-05T22:14:55.625Z,24.10
2022-10-05T22:17:24.448Z,21.50
2022-10-05T22:19:51.241Z,19.15
2022-10-05T22:22:17.596Z,23.88
2022-10-05T22:24:43.950Z,20.23
2022-10-05T22:27:10.308Z,32.50
2022-10-05T22:29:36.813Z,21.73
2022-10-05T22:32:03.301Z,24.77
2022-10-05T22:34:29.679Z,20.30
2022-10-05T22:36:56.058Z,25.75
2022-10-05T22:39:22.436Z,20.58
2022-10-05T22:41:48.854Z,20.08
2022-10-05T22:44:15.220Z,17.67
2022-10-05T22:46:41.544Z,22.42
2022-10-05T22:49:08.010Z,17.92
2022-10-05T22:51:34.678Z,12.75
2022-10-05T22:54:01.004Z,15.75
2022-10-05T22:56:27.625Z,14.35
2022-10-05T22:58:54.003Z,18.48
2022-10-05T23:01:20.936Z,17.65
2022-10-05T23:03:47.531Z,10.48
2022-10-05T23:06:15.423Z,13.63
2022-10-05T23:08:41.952Z,15.00
2022-10-05T23:11:09.657Z,15.35
2022-10-05T23:13:36.028Z,15.18
2022-10-05T23:16:12.857Z,11.88
2022-10-05T23:18:39.540Z,12.85
2022-10-05T23:21:07.781Z,17.13
2022-10-05T23:23:37.686Z,15.35
2022-10-05T23:26:08.012Z,6.03
2022-10-05T23:28:34.658Z,3.55
2022-10-05T23:31:05.524Z,2.95
2022-10-05T23:33:32.337Z,4.18
2022-10-05T23:36:06.627Z,2.08
2022-10-05T23:38:33.894Z,1.23
2022-10-05T23:41:00.767Z,2.55
2022-10-05T23:43:27.680Z,1.13
2022-10-05T23:45:54.689Z,3.35
2022-10-05T23:48:21.405Z,3.25
2022-10-05T23:50:48.881Z,1.73
2022-10-05T23:53:18.462Z,2.58
2022-10-05T23:55:45.084Z,2.42
2022-10-05T23:58:12.106Z,2.58
